Time;durP1;ratioP1;P1;durP2;ratioP2;P2;SDS_P1;SDS_P2;PMS_P1;PMS_P2;Temp;Humidity;BMP_temperature;BMP_pressure;BME280_temperature;BME280_humidity;BME280_pressure;Samples;Min_cycle;Max_cycle;Signal;HPM_P1;HPM_P2
2023/07/11 00:01:57;;;;;;;5.35;4.05;;;;;;;22.12;49.80;97003.75;6279667;22;20481;-80
2023/07/11 00:04:35;;;;;;;7.82;4.18;;;;;;;22.09;50.07;96998.94;6254338;22;20059;-81
2023/07/11 00:07:32;;;;;;;7.07;3.80;;;;;;;22.07;49.98;97001.06;6278536;22;20028;-80
2023/07/11 00:10:32;;;;;;;5.45;3.83;;;;;;;22.01;49.80;96991.41;6280430;22;20039;-81
2023/07/11 00:13:12;;;;;;;4.38;3.83;;;;;;;22.01;49.91;96999.38;6232874;22;20022;-80
2023/07/11 00:16:04;;;;;;;7.00;4.20;;;;;;;22.04;50.15;96996.25;6276735;22;20019;-81
2023/07/11 00:18:57;;;;;;;4.70;3.42;;;;;;;22.10;49.97;96991.78;6253255;22;20396;-81
2023/07/11 00:24:36;;;;;;;5.25;3.75;;;;;;;22.04;49.93;96992.75;6278980;22;20090;-80
2023/07/11 00:27:55;;;;;;;4.47;3.85;;;;;;;22.04;49.71;96988.28;6279275;22;20034;-81
2023/07/11 00:33:35;;;;;;;5.38;3.75;;;;;;;21.92;50.29;96984.91;6277030;22;20526;-80
2023/07/11 00:36:24;;;;;;;7.22;4.15;;;;;;;21.80;50.34;96983.16;6256485;22;20030;-80
2023/07/11 00:39:06;;;;;;;7.55;3.75;;;;;;;21.71;50.66;96987.28;6253665;22;20527;-81
2023/07/11 00:41:57;;;;;;;7.90;4.45;;;;;;;21.66;50.88;96987.19;6277876;22;20103;-80
2023/07/11 00:44:47;;;;;;;5.72;4.22;;;;;;;21.65;50.65;96987.44;6279853;22;20049;-80
2023/07/11 00:47:29;;;;;;;5.10;3.90;;;;;;;21.60;50.82;96982.84;6278081;22;20507;-82
2023/07/11 00:50:30;;;;;;;6.20;4.20;;;;;;;21.60;50.81;96974.88;6275620;22;20528;-81
2023/07/11 00:53:07;;;;;;;7.20;3.80;;;;;;;21.66;50.39;96975.78;6293346;22;20027;-79
2023/07/11 00:55:43;;;;;;;5.50;3.75;;;;;;;21.75;50.59;96975.09;6292141;22;20022;-80
2023/07/11 00:58:23;;;;;;;5.78;3.60;;;;;;;21.83;50.17;96965.13;6294537;22;20026;-80
2023/07/11 01:01:01;;;;;;;5.03;4.20;;;;;;;21.80;49.89;96966.44;6280239;22;20015;-80
2023/07/11 01:03:41;;;;;;;6.68;3.80;;;;;;;21.79;50.15;96967.47;6277215;22;20020;-80
2023/07/11 01:06:17;;;;;;;5.47;3.35;;;;;;;21.84;49.86;96964.06;6281352;22;20065;-80
2023/07/11 01:08:57;;;;;;;4.40;3.40;;;;;;;21.85;49.94;96958.53;6277294;22;20043;-80
2023/07/11 01:12:02;;;;;;;5.90;3.95;;;;;;;21.81;49.94;96962.72;6276259;22;20511;-80
2023/07/11 01:14:38;;;;;;;4.13;3.33;;;;;;;21.80;49.82;96961.13;6274889;22;20022;-80
2023/07/11 01:17:27;;;;;;;6.15;3.67;;;;;;;21.79;49.88;96957.63;6277728;22;20023;-79
2023/07/11 01:20:02;;;;;;;5.18;3.78;;;;;;;21.74;50.04;96952.28;6276998;22;20069;-79
2023/07/11 01:22:41;;;;;;;3.85;3.40;;;;;;;21.75;49.99;96948.56;6277332;22;20050;-80
2023/07/11 01:25:19;;;;;;;4.88;3.38;;;;;;;21.77;49.98;96951.75;6251791;22;20046;-80
2023/07/11 01:27:54;;;;;;;4.80;3.15;;;;;;;21.80;49.90;96945.97;6277936;22;20028;-80
2023/07/11 01:30:32;;;;;;;3.97;3.58;;;;;;;21.79;49.41;96941.72;6250697;22;20020;-80
2023/07/11 01:33:14;;;;;;;4.63;3.85;;;;;;;21.75;50.00;96950.41;6276769;22;20100;-79
2023/07/11 01:35:47;;;;;;;5.00;3.40;;;;;;;21.67;49.83;96933.06;6277580;22;20360;-80
2023/07/11 01:38:27;;;;;;;5.47;4.07;;;;;;;21.61;50.02;96936.69;6277199;22;20484;-80
2023/07/11 01:41:01;;;;;;;4.40;4.00;;;;;;;21.57;50.05;96935.56;6277026;22;20024;-80
2023/07/11 01:43:32;;;;;;;4.97;3.65;;;;;;;21.56;50.54;96931.31;6277240;22;20027;-80
2023/07/11 01:46:04;;;;;;;4.45;3.47;;;;;;;21.60;50.08;96932.41;6277612;22;20020;-79
2023/07/11 01:48:39;;;;;;;6.88;3.95;;;;;;;21.67;49.92;96935.72;6278853;22;20027;-80
2023/07/11 01:51:09;;;;;;;3.80;3.50;;;;;;;21.71;49.44;96928.88;6278219;22;20073;-80
2023/07/11 01:53:45;;;;;;;5.47;3.78;;;;;;;21.67;49.41;96930.41;6277298;22;20094;-80
2023/07/11 01:56:20;;;;;;;6.18;4.28;;;;;;;21.66;49.50;96920.03;6278015;22;20016;-80
2023/07/11 01:59:01;;;;;;;6.78;3.88;;;;;;;21.62;49.62;96917.03;6277802;22;20023;-80
2023/07/11 02:01:38;;;;;;;4.35;3.60;;;;;;;21.60;49.68;96921.78;6278731;22;20034;-80
2023/07/11 02:04:09;;;;;;;6.55;3.83;;;;;;;21.58;49.40;96921.22;6277835;22;20061;-80
2023/07/11 02:06:43;;;;;;;6.88;3.60;;;;;;;21.53;49.49;96926.47;6276062;22;20098;-80
2023/07/11 02:09:24;;;;;;;4.60;3.95;;;;;;;21.47;49.67;96930.09;6278159;22;20023;-80
2023/07/11 02:11:59;;;;;;;4.95;3.25;;;;;;;21.39;49.88;96920.69;6277248;22;20027;-80
2023/07/11 02:14:46;;;;;;;6.50;3.88;;;;;;;21.27;50.18;96918.09;6278502;22;20015;-80
2023/07/11 02:17:25;;;;;;;7.18;4.00;;;;;;;21.19;50.02;96913.22;6278013;22;20016;-80
2023/07/11 02:20:00;;;;;;;4.70;3.75;;;;;;;21.11;50.50;96910.97;6277987;22;20098;-81
2023/07/11 02:25:26;;;;;;;5.75;3.85;;;;;;;20.96;50.93;96911.50;6278331;22;20020;-81
2023/07/11 02:27:57;;;;;;;4.82;4.15;;;;;;;20.89;51.08;96913.53;6251586;22;20022;-81
2023/07/11 02:30:35;;;;;;;5.43;3.55;;;;;;;20.85;51.41;96918.50;6277516;22;20074;-81
2023/07/11 02:35:53;;;;;;;7.25;3.80;;;;;;;20.82;51.31;96910.22;6277466;22;20073;-81
2023/07/11 02:38:26;;;;;;;6.00;3.55;;;;;;;20.78;51.29;96907.25;6277990;22;20012;-80
2023/07/11 02:40:58;;;;;;;10.95;4.00;;;;;;;20.78;51.46;96907.25;6250995;22;20070;-81
2023/07/11 02:43:29;;;;;;;7.28;3.83;;;;;;;20.81;51.31;96909.41;6277481;22;20023;-81
2023/07/11 02:52:19;;;;;;;4.28;3.35;;;;;;;20.68;51.19;96899.09;6277724;22;20103;-81
2023/07/11 02:58:41;;;;;;;6.22;4.28;;;;;;;20.57;51.51;96896.28;6274863;22;20019;-80
2023/07/11 03:01:37;;;;;;;4.95;3.65;;;;;;;20.55;51.67;96903.66;6277268;22;20020;-80
2023/07/11 03:07:24;;;;;;;6.75;3.78;;;;;;;20.51;51.63;96891.91;6274250;22;20030;-79
2023/07/11 03:09:58;;;;;;;5.68;3.70;;;;;;;20.51;51.90;96894.56;6250878;22;20019;-81
2023/07/11 03:15:44;;;;;;;5.07;3.40;;;;;;;20.52;51.77;96890.84;6278818;22;20004;-80
2023/07/11 03:23:37;;;;;;;6.28;4.13;;;;;;;20.44;52.02;96874.53;6231374;22;20054;-78
2023/07/11 03:26:05;;;;;;;4.95;4.05;;;;;;;20.44;51.88;96882.47;6247629;23;20020;-78
2023/07/11 03:28:33;;;;;;;7.10;4.43;;;;;;;20.41;51.91;96873.16;6246853;23;20031;-78
2023/07/11 03:31:01;;;;;;;6.55;4.60;;;;;;;20.40;52.11;96871.56;6275745;22;20051;-78
2023/07/11 03:33:28;;;;;;;9.82;5.57;;;;;;;20.42;51.97;96868.66;6276818;22;20051;-79
2023/07/11 03:35:56;;;;;;;4.57;3.88;;;;;;;20.44;51.86;96875.34;6273756;22;20042;-80
2023/07/11 03:38:24;;;;;;;4.38;3.75;;;;;;;20.43;51.96;96878.25;6215862;23;20072;-78
2023/07/11 03:40:54;;;;;;;4.72;3.75;;;;;;;20.41;51.78;96870.53;6215554;23;20478;-78
2023/07/11 03:43:21;;;;;;;5.95;4.10;;;;;;;20.43;51.73;96872.94;6215797;23;20401;-77
2023/07/11 03:45:49;;;;;;;7.32;3.95;;;;;;;20.42;51.91;96872.13;6218114;23;20052;-78
2023/07/11 03:48:18;;;;;;;4.63;3.67;;;;;;;20.38;52.21;96871.81;6245874;23;20024;-77
2023/07/11 03:50:46;;;;;;;6.18;4.47;;;;;;;20.37;51.90;96862.22;6246631;23;20337;-77
2023/07/11 03:53:14;;;;;;;5.28;3.72;;;;;;;20.36;52.33;96867.78;6245889;23;20024;-77
2023/07/11 03:55:42;;;;;;;6.18;3.60;;;;;;;20.34;52.13;96864.56;6245535;23;20470;-78
2023/07/11 03:58:12;;;;;;;5.88;4.15;;;;;;;20.33;51.82;96868.25;6255403;23;20024;-78
2023/07/11 04:00:40;;;;;;;7.15;4.38;;;;;;;20.30;52.09;96860.78;6260044;23;20020;-79
2023/07/11 04:03:08;;;;;;;6.25;4.35;;;;;;;20.28;52.25;96861.00;6255952;23;20020;-78
2023/07/11 04:05:36;;;;;;;6.43;4.55;;;;;;;20.28;52.12;96857.56;6255231;23;20043;-79
2023/07/11 04:08:05;;;;;;;6.45;3.67;;;;;;;20.29;52.21;96859.16;6256433;23;20024;-78
2023/07/11 04:10:33;;;;;;;4.47;3.95;;;;;;;20.29;52.00;96862.63;6251247;23;20074;-78
2023/07/11 04:13:02;;;;;;;5.68;3.83;;;;;;;20.32;51.77;96864.00;6246536;23;20028;-77
2023/07/11 04:15:31;;;;;;;5.70;4.03;;;;;;;20.29;51.64;96851.22;6248233;23;20031;-78
2023/07/11 04:18:00;;;;;;;6.40;4.30;;;;;;;20.30;51.89;96855.50;6247931;23;20027;-78
2023/07/11 04:20:28;;;;;;;5.93;3.90;;;;;;;20.32;51.37;96848.91;6247082;23;20016;-78
2023/07/11 04:22:57;;;;;;;7.72;4.47;;;;;;;20.33;51.38;96857.66;6249181;23;20358;-77
2023/07/11 04:25:25;;;;;;;9.68;4.78;;;;;;;20.31;51.55;96855.25;6262348;23;20044;-77
2023/07/11 04:28:34;;;;;;;3.97;3.55;;;;;;;20.31;51.67;96857.09;6259026;23;20519;-78
2023/07/11 04:31:06;;;;;;;6.18;3.70;;;;;;;20.32;51.87;96856.84;6247964;23;20493;-78
2023/07/11 04:33:38;;;;;;;5.07;3.85;;;;;;;20.35;52.04;96858.22;6247930;23;20020;-78
2023/07/11 04:36:10;;;;;;;6.15;4.53;;;;;;;20.37;51.91;96859.59;6246837;23;20020;-78
2023/07/11 04:38:38;;;;;;;;;;;;;;;20.39;51.60;96856.72;6247664;23;20465;-78
2023/07/11 04:41:11;;;;;;;5.80;4.28;;;;;;;20.36;51.64;96855.34;6246159;23;19915;-78
2023/07/11 04:43:44;;;;;;;6.13;3.70;;;;;;;20.35;51.53;96858.22;6246858;23;20020;-78
2023/07/11 04:46:17;;;;;;;5.57;4.50;;;;;;;20.35;51.66;96858.22;6247194;23;20020;-77
2023/07/11 04:48:49;;;;;;;8.18;3.95;;;;;;;20.38;51.68;96855.13;6246205;23;20020;-79
2023/07/11 04:51:19;;;;;;;4.82;3.97;;;;;;;20.41;51.86;96851.97;6247085;23;20020;-78
2023/07/11 04:53:47;;;;;;;5.63;5.00;;;;;;;20.43;51.99;96852.53;6246904;23;20099;-79
2023/07/11 04:56:15;;;;;;;5.20;4.22;;;;;;;20.42;51.97;96850.91;6247504;23;20016;-79
2023/07/11 04:58:43;;;;;;;5.55;3.95;;;;;;;20.44;51.88;96846.19;6246979;23;20020;-79
2023/07/11 05:01:15;;;;;;;5.47;4.18;;;;;;;20.48;51.47;96852.63;6246678;23;20339;-79
2023/07/11 05:03:56;;;;;;;5.65;3.97;;;;;;;20.50;51.90;96847.09;6255503;22;20020;-79
2023/07/11 05:06:25;;;;;;;4.47;3.75;;;;;;;20.54;51.67;96845.56;6245873;23;20016;-76
2023/07/11 05:08:52;;;;;;;4.50;4.07;;;;;;;20.58;51.57;96844.88;6246368;23;20393;-76
2023/07/11 05:11:21;;;;;;;10.05;3.90;;;;;;;20.61;51.48;96842.81;6246907;23;20099;-77
2023/07/11 05:14:05;;;;;;;4.30;3.65;;;;;;;20.61;51.22;96833.00;6243175;23;20070;-76
2023/07/11 05:20:52;;;;;;;6.53;4.15;;;;;;;20.70;51.16;96839.50;6244223;23;20091;-79
2023/07/11 05:34:04;;;;;;;7.03;3.88;;;;;;;20.98;50.18;96827.22;6180308;23;20505;-78
2023/07/11 05:43:46;;;;;;;6.60;3.30;;;;;;;21.25;49.46;96816.72;6187773;23;20031;-77
2023/07/11 06:01:02;;;;;;;5.32;3.63;;;;;;;21.90;47.74;96803.75;6091403;23;20553;-77
2023/07/11 06:20:55;;;;;;;4.43;2.97;;;;;;;22.88;44.28;96800.16;6242636;22;20050;-77
2023/07/11 06:23:23;;;;;;;4.15;3.33;;;;;;;23.00;43.97;96796.28;6247189;23;20362;-77
2023/07/11 06:25:51;;;;;;;5.75;3.20;;;;;;;23.12;43.58;96800.59;6249793;22;20392;-77
2023/07/11 06:28:18;;;;;;;4.97;3.35;;;;;;;23.23;43.29;96800.38;6277713;22;20024;-77
2023/07/11 06:30:47;;;;;;;3.80;3.25;;;;;;;23.33;43.15;96794.34;6276662;22;20019;-77
2023/07/11 07:32:39;;;;;;;5.43;3.38;;;;;;;25.85;37.83;96780.00;6229536;22;20024;-79
2023/07/11 07:35:08;;;;;;;5.25;3.28;;;;;;;25.94;37.94;96774.91;6245518;23;20090;-79
2023/07/11 07:37:36;;;;;;;6.30;3.28;;;;;;;26.05;37.84;96778.31;6245490;23;20099;-78
2023/07/11 07:40:04;;;;;;;3.50;2.97;;;;;;;26.15;37.75;96778.25;6245002;23;20020;-78
2023/07/11 07:42:32;;;;;;;5.15;3.35;;;;;;;26.25;37.36;96767.47;6256226;22;20024;-79
2023/07/11 07:44:59;;;;;;;3.78;3.03;;;;;;;26.38;37.40;96765.25;6275478;22;20485;-79
2023/07/11 07:47:27;;;;;;;4.43;3.08;;;;;;;26.48;37.17;96765.19;6275392;22;20016;-77
2023/07/11 07:49:56;;;;;;;5.20;3.30;;;;;;;26.58;37.12;96769.69;6275367;22;20081;-76
2023/07/11 07:52:27;;;;;;;3.80;2.90;;;;;;;26.68;37.19;96765.03;6275744;22;20098;-77
2023/07/11 07:54:54;;;;;;;6.60;3.40;;;;;;;26.80;37.21;96759.28;6275623;22;20024;-77
2023/07/11 07:57:22;;;;;;;12.25;3.55;;;;;;;26.93;37.03;96765.88;6275730;22;20425;-77
2023/07/11 07:59:50;;;;;;;6.13;3.60;;;;;;;27.02;36.06;96761.50;6275348;22;20055;-77
2023/07/11 08:02:17;;;;;;;4.68;3.10;;;;;;;27.10;36.25;96760.09;6275531;22;20051;-77
2023/07/11 08:04:47;;;;;;;4.60;3.13;;;;;;;27.19;35.78;96757.59;6275331;22;20472;-77
2023/07/11 08:07:17;;;;;;;4.80;3.42;;;;;;;27.29;35.80;96757.50;6275839;22;20047;-77
2023/07/11 08:09:44;;;;;;;5.13;3.22;;;;;;;27.36;35.72;96755.28;6275255;22;20329;-77
2023/07/11 08:12:12;;;;;;;6.05;3.28;;;;;;;27.44;35.56;96748.47;6275010;22;20094;-77
2023/07/11 08:14:41;;;;;;;6.75;3.55;;;;;;;27.53;35.96;96752.91;6275546;22;20046;-77
2023/07/11 08:17:10;;;;;;;6.28;3.40;;;;;;;27.63;35.60;96756.56;6275724;22;20028;-78
2023/07/11 08:19:37;;;;;;;6.30;3.38;;;;;;;27.74;36.07;96750.75;6275151;22;20070;-77
2023/07/11 08:22:06;;;;;;;4.07;3.40;;;;;;;27.83;35.51;96744.75;6275346;22;20023;-77
2023/07/11 08:24:35;;;;;;;6.25;3.10;;;;;;;27.90;35.61;96740.66;6275496;22;20402;-78
2023/07/11 08:27:03;;;;;;;4.43;3.72;;;;;;;28.01;35.46;96745.88;6275356;22;20534;-78
2023/07/11 08:29:30;;;;;;;3.63;3.33;;;;;;;28.08;35.46;96732.91;6275307;22;20024;-78
2023/07/11 08:31:58;;;;;;;7.55;3.60;;;;;;;28.18;35.69;96735.41;6275233;22;20030;-77
2023/07/11 08:34:26;;;;;;;4.18;3.05;;;;;;;28.28;36.35;96735.28;6275530;22;20020;-77
2023/07/11 08:36:54;;;;;;;5.28;3.97;;;;;;;28.38;35.14;96728.13;6275420;22;20024;-79
2023/07/11 08:39:22;;;;;;;7.00;3.50;;;;;;;28.44;35.63;96727.75;6275244;22;20047;-78
2023/07/11 08:41:52;;;;;;;5.50;3.35;;;;;;;28.53;35.53;96735.97;6274847;22;20055;-77
2023/07/11 08:44:28;;;;;;;6.25;3.42;;;;;;;28.62;35.26;96726.13;6275413;22;20020;-78
2023/07/11 08:47:01;;;;;;;5.78;3.83;;;;;;;28.71;35.52;96720.91;6275222;22;20091;-79
2023/07/11 08:49:36;;;;;;;4.82;3.78;;;;;;;28.82;35.07;96713.44;6275041;22;20020;-79
2023/07/11 08:52:06;;;;;;;5.28;3.67;;;;;;;28.89;35.54;96717.34;6275507;22;20020;-78
2023/07/11 08:54:39;;;;;;;4.72;3.35;;;;;;;28.98;35.22;96717.47;6274858;22;20030;-77
2023/07/11 08:57:10;;;;;;;4.55;3.85;;;;;;;29.08;35.26;96716.47;6275479;22;20050;-78
2023/07/11 08:59:46;;;;;;;8.95;4.05;;;;;;;29.15;35.65;96711.53;6275103;22;20027;-77
2023/07/11 09:02:33;;;;;;;3.95;3.55;;;;;;;29.28;36.36;96701.84;6275691;22;20397;-79
2023/07/11 09:05:03;;;;;;;4.95;3.55;;;;;;;29.39;35.87;96705.94;6275616;22;20042;-79
2023/07/11 09:07:36;;;;;;;5.40;3.88;;;;;;;29.47;35.45;96705.22;6275352;22;20074;-77
2023/07/11 09:10:18;;;;;;;4.60;4.10;;;;;;;29.52;35.43;96702.44;6275104;22;20019;-79
2023/07/11 09:12:55;;;;;;;5.90;4.45;;;;;;;29.58;36.20;96698.56;6274937;22;20047;-78
2023/07/11 09:15:48;;;;;;;5.68;4.47;;;;;;;29.63;36.10;96696.81;6275086;22;20027;-78
2023/07/11 09:18:33;;;;;;;4.72;4.25;;;;;;;29.67;36.65;96687.88;6275263;22;20353;-79
2023/07/11 09:21:09;;;;;;;5.88;4.45;;;;;;;29.77;36.53;96676.91;6275164;22;20465;-78
2023/07/11 09:23:47;;;;;;;4.40;4.00;;;;;;;29.87;35.88;96681.28;6275238;22;20024;-78
2023/07/11 09:26:22;;;;;;;5.22;4.57;;;;;;;29.94;35.73;96676.25;6274939;22;20046;-79
2023/07/11 09:28:54;;;;;;;6.22;4.05;;;;;;;30.01;35.73;96675.81;6275492;22;20016;-78
2023/07/11 09:31:22;;;;;;;4.63;4.10;;;;;;;30.09;36.32;96674.31;6275341;22;20020;-79
2023/07/11 09:33:54;;;;;;;7.93;4.07;;;;;;;30.17;36.06;96668.19;6274722;22;20026;-78
2023/07/11 09:36:27;;;;;;;7.25;4.43;;;;;;;30.24;36.25;96670.44;6274740;22;20062;-78
2023/07/11 09:38:59;;;;;;;5.07;4.13;;;;;;;30.30;36.31;96663.84;6275586;22;20352;-79
2023/07/11 09:41:46;;;;;;;8.70;4.60;;;;;;;30.36;36.41;96666.09;6275248;22;20020;-79
2023/07/11 09:44:18;;;;;;;4.88;4.38;;;;;;;30.49;36.63;96655.59;6275283;22;20028;-79
2023/07/11 09:46:47;;;;;;;5.68;4.32;;;;;;;30.58;36.05;96651.81;6275240;22;20024;-75
2023/07/11 09:49:20;;;;;;;4.85;3.90;;;;;;;30.70;35.45;96659.31;6274901;22;20099;-76
2023/07/11 09:51:51;;;;;;;6.32;4.30;;;;;;;30.78;35.66;96650.47;6274734;22;20024;-75
2023/07/11 09:54:21;;;;;;;6.40;4.53;;;;;;;30.83;35.40;96651.44;6274944;22;20024;-75
2023/07/11 09:56:50;;;;;;;6.10;4.40;;;;;;;30.86;35.35;96645.47;6274907;22;20027;-75
2023/07/11 09:59:21;;;;;;;5.55;4.88;;;;;;;30.92;35.62;96646.91;6274928;22;20035;-76
2023/07/11 10:01:52;;;;;;;5.07;4.45;;;;;;;31.02;35.30;96643.94;6274464;22;20019;-75
2023/07/11 10:04:23;;;;;;;6.47;4.38;;;;;;;31.09;35.41;96633.47;6275038;22;20222;-76
2023/07/11 10:06:56;;;;;;;5.25;4.18;;;;;;;31.16;34.58;96650.00;6275688;22;20019;-76
2023/07/11 10:09:26;;;;;;;8.20;5.00;;;;;;;31.18;34.69;96645.09;6277223;22;20078;-76
2023/07/11 10:11:58;;;;;;;6.05;4.55;;;;;;;31.24;34.73;96639.53;6276886;22;20031;-76
2023/07/11 10:14:30;;;;;;;;;;;;;;;31.30;34.75;96640.97;6277144;22;20464;-75
2023/07/11 10:16:59;;;;;;;7.07;4.15;;;;;;;31.29;34.54;96631.28;6276801;22;19969;-78
2023/07/11 10:19:28;;;;;;;5.20;4.30;;;;;;;31.29;34.83;96625.91;6277424;22;20023;-77
2023/07/11 10:21:59;;;;;;;5.03;4.40;;;;;;;31.32;34.64;96625.28;6276907;22;20223;-78
2023/07/11 10:24:33;;;;;;;8.77;4.75;;;;;;;31.32;34.64;96615.28;6277803;22;20023;-77
2023/07/11 10:27:11;;;;;;;7.53;5.63;;;;;;;31.34;34.69;96617.69;6276794;22;20057;-78
2023/07/11 10:29:44;;;;;;;7.53;4.68;;;;;;;31.40;34.78;96624.50;6277224;22;20457;-78
2023/07/11 10:32:17;;;;;;;6.20;4.47;;;;;;;31.45;34.54;96616.28;6277203;22;20031;-78
2023/07/11 10:34:50;;;;;;;6.90;5.20;;;;;;;31.51;34.36;96606.94;6277365;22;20055;-78
2023/07/11 10:37:27;;;;;;;5.50;4.97;;;;;;;31.59;33.70;96608.03;6277073;22;20085;-78
2023/07/11 10:40:00;;;;;;;8.60;4.63;;;;;;;31.65;32.75;96606.00;6276976;22;20073;-77
2023/07/11 10:42:36;;;;;;;10.23;5.70;;;;;;;31.68;31.63;96603.44;6277866;22;20326;-78
2023/07/11 10:45:12;;;;;;;6.68;5.38;;;;;;;31.78;31.67;96602.31;6277580;22;20020;-78
2023/07/11 10:47:49;;;;;;;6.63;5.60;;;;;;;31.87;31.56;96597.72;6277186;22;20095;-78
2023/07/11 10:50:36;;;;;;;6.40;5.38;;;;;;;31.97;31.66;96591.19;6277254;22;20019;-78
2023/07/11 10:53:15;;;;;;;6.78;5.32;;;;;;;32.07;31.07;96590.09;6276860;22;20023;-78
2023/07/11 10:55:47;;;;;;;8.73;5.88;;;;;;;32.15;31.11;96581.97;6277283;22;20353;-77
2023/07/11 10:58:18;;;;;;;6.50;5.70;;;;;;;32.21;30.46;96579.91;6276872;22;20047;-77
2023/07/11 11:00:57;;;;;;;7.05;5.57;;;;;;;32.26;30.28;96581.63;6276536;22;20081;-78
2023/07/11 11:03:38;;;;;;;6.15;4.68;;;;;;;32.31;30.74;96573.34;6276990;22;20020;-78
2023/07/11 11:06:44;;;;;;;6.47;5.20;;;;;;;32.40;30.96;96568.69;6277301;22;20020;-78
2023/07/11 11:09:17;;;;;;;5.82;4.78;;;;;;;32.51;30.96;96571.84;6152554;23;20107;-75
2023/07/11 11:11:59;;;;;;;6.70;5.10;;;;;;;32.61;30.22;96563.41;6259782;22;20039;-77
2023/07/11 11:14:34;;;;;;;7.18;4.93;;;;;;;32.69;30.72;96557.16;6277458;22;20019;-77
2023/07/11 11:17:20;;;;;;;7.13;4.85;;;;;;;32.76;30.53;96556.66;6276896;22;20023;-78
2023/07/11 11:20:01;;;;;;;6.60;4.25;;;;;;;32.79;30.38;96551.38;6276648;22;20048;-78
2023/07/11 11:22:39;;;;;;;8.77;4.95;;;;;;;32.87;29.95;96541.66;6276877;22;20024;-78
2023/07/11 11:25:16;;;;;;;5.63;5.13;;;;;;;32.93;30.05;96550.34;6276670;22;20069;-78
2023/07/11 11:27:53;;;;;;;7.82;4.28;;;;;;;32.97;29.90;96543.16;6277267;22;20026;-77
2023/07/11 11:30:33;;;;;;;5.38;4.82;;;;;;;33.01;30.03;96542.16;6277032;22;20098;-78
2023/07/11 11:33:13;;;;;;;6.18;4.47;;;;;;;33.02;29.41;96540.28;6276777;22;20365;-78
2023/07/11 11:35:58;;;;;;;6.47;4.32;;;;;;;33.03;29.60;96539.94;6277588;22;20019;-78
2023/07/11 11:38:39;;;;;;;7.80;5.22;;;;;;;33.01;30.40;96538.69;6277073;22;20027;-77
2023/07/11 11:41:12;;;;;;;6.85;5.03;;;;;;;33.05;30.05;96520.69;6277456;22;20024;-78
2023/07/11 11:43:42;;;;;;;5.60;5.10;;;;;;;33.11;30.53;96516.72;6277745;22;20042;-78
2023/07/11 11:46:13;;;;;;;5.53;4.20;;;;;;;33.15;30.63;96525.75;6287860;22;20050;-78
2023/07/11 11:48:45;;;;;;;;;;;;;;;33.17;30.62;96511.88;6277884;22;20042;-78
2023/07/11 11:51:17;;;;;;;;;;;;;;;33.19;30.80;96523.97;6288052;22;19919;-78
2023/07/11 11:53:46;;;;;;;6.70;4.25;;;;;;;33.20;30.86;96512.03;6277318;22;20241;-78
2023/07/11 11:56:17;;;;;;;6.68;4.03;;;;;;;33.25;30.93;96509.09;6276775;22;20027;-78
2023/07/11 11:58:58;;;;;;;5.15;4.38;;;;;;;33.32;30.14;96505.09;6276399;22;20303;-78
2023/07/11 12:01:38;;;;;;;4.88;4.00;;;;;;;33.34;30.41;96508.25;6276688;22;20335;-78
2023/07/11 12:04:38;;;;;;;7.57;4.32;;;;;;;33.30;30.94;96510.03;6276051;22;20059;-78
2023/07/11 12:07:21;;;;;;;5.72;4.50;;;;;;;33.25;30.54;96503.69;6227906;22;20028;-78
2023/07/11 12:10:03;;;;;;;5.22;4.20;;;;;;;33.18;30.40;96508.84;6276214;22;20523;-78
2023/07/11 12:13:05;;;;;;;7.00;4.15;;;;;;;33.11;30.63;96503.19;6276300;22;20051;-78
2023/07/11 12:15:38;;;;;;;9.30;4.60;;;;;;;33.01;30.62;96498.16;6276802;22;20058;-78
2023/07/11 12:18:26;;;;;;;7.10;4.35;;;;;;;32.99;30.89;96489.59;6276549;22;20024;-78
2023/07/11 12:21:32;;;;;;;6.22;4.20;;;;;;;32.98;30.82;96479.91;6274940;22;20094;-75
2023/07/11 12:24:24;;;;;;;7.22;4.18;;;;;;;32.97;31.51;96475.63;6275427;22;20082;-76
2023/07/11 12:27:31;;;;;;;8.77;4.38;;;;;;;32.96;31.38;96474.81;6275494;22;20032;-75
2023/07/11 12:30:02;;;;;;;8.13;5.47;;;;;;;32.99;31.33;96478.78;6274421;22;20058;-76
2023/07/11 12:32:36;;;;;;;8.35;4.95;;;;;;;33.05;31.15;96459.34;6274995;22;20051;-76
2023/07/11 12:35:14;;;;;;;7.97;4.65;;;;;;;33.10;31.46;96452.19;6275303;22;20020;-76
2023/07/11 12:37:49;;;;;;;8.90;5.07;;;;;;;33.16;31.71;96435.41;6274883;22;20519;-75
2023/07/11 12:40:20;;;;;;;5.47;4.80;;;;;;;33.23;31.11;96446.47;6274439;22;20376;-76
2023/07/11 12:42:52;;;;;;;6.20;4.30;;;;;;;33.30;31.39;96439.75;6275134;22;20082;-76
2023/07/11 12:45:23;;;;;;;6.63;4.55;;;;;;;33.33;31.14;96434.47;6275590;22;20016;-75
2023/07/11 12:47:58;;;;;;;8.88;4.72;;;;;;;33.35;31.49;96436.84;6275608;22;20095;-75
2023/07/11 12:50:33;;;;;;;7.93;5.03;;;;;;;33.37;31.45;96429.19;6274379;22;20453;-76
2023/07/11 12:53:03;;;;;;;12.88;4.80;;;;;;;33.39;30.97;96432.34;6277349;22;20031;-78
2023/07/11 12:55:31;;;;;;;10.05;4.75;;;;;;;33.42;30.80;96432.47;6277419;22;20023;-78
2023/07/11 12:57:59;;;;;;;6.97;5.28;;;;;;;33.44;31.07;96440.25;6277432;22;20465;-78
2023/07/11 13:00:31;;;;;;;7.25;5.25;;;;;;;33.43;31.23;96439.47;6276664;22;20082;-78
2023/07/11 13:03:14;;;;;;;6.03;4.60;;;;;;;33.44;31.23;96437.53;6276410;22;20078;-78
2023/07/11 13:05:41;;;;;;;6.10;4.55;;;;;;;33.47;31.00;96434.16;6277140;22;20024;-78
2023/07/11 13:08:15;;;;;;;5.63;4.38;;;;;;;33.53;31.42;96434.75;6277071;22;20023;-78
2023/07/11 13:10:49;;;;;;;7.47;5.22;;;;;;;33.60;31.38;96443.13;6276481;22;20523;-78
2023/07/11 13:13:17;;;;;;;5.60;4.43;;;;;;;33.62;31.51;96436.25;6277146;22;20028;-77
2023/07/11 13:15:47;;;;;;;7.22;5.00;;;;;;;33.64;31.57;96422.41;6278612;22;20023;-78
2023/07/11 13:18:29;;;;;;;8.32;4.82;;;;;;;33.62;31.37;96425.44;6278262;22;20080;-78
2023/07/11 13:20:58;;;;;;;8.07;5.50;;;;;;;33.61;30.93;96409.56;6276506;22;20066;-77
2023/07/11 13:23:28;;;;;;;7.85;4.93;;;;;;;33.62;31.19;96403.00;6277034;22;20020;-78
2023/07/11 13:25:55;;;;;;;7.75;4.82;;;;;;;33.63;31.01;96404.59;6276945;22;20554;-78
2023/07/11 13:28:25;;;;;;;5.20;4.70;;;;;;;33.64;30.60;96398.06;6277306;22;20024;-77
2023/07/11 13:30:59;;;;;;;7.15;5.13;;;;;;;33.59;31.02;96401.00;6277308;22;20015;-78
2023/07/11 13:33:31;;;;;;;7.35;5.13;;;;;;;33.57;31.04;96406.69;6276736;22;20028;-77
2023/07/11 13:36:15;;;;;;;7.68;5.28;;;;;;;33.57;30.37;96398.59;6277567;22;20023;-78
2023/07/11 13:39:03;;;;;;;7.72;4.95;;;;;;;33.58;31.18;96381.22;6276795;22;20043;-78
2023/07/11 13:41:35;;;;;;;6.32;5.30;;;;;;;33.58;30.55;96386.63;6277450;22;20077;-78
2023/07/11 13:44:12;;;;;;;7.70;5.07;;;;;;;33.59;29.89;96377.44;6279159;22;20477;-78
2023/07/11 13:46:42;;;;;;;9.48;5.93;;;;;;;33.60;30.84;96383.63;6279837;22;20019;-78
2023/07/11 13:49:16;;;;;;;8.30;5.53;;;;;;;33.61;30.99;96380.59;6278407;22;20019;-78
2023/07/11 13:51:43;;;;;;;6.15;5.35;;;;;;;33.58;31.18;96370.41;6278111;22;20098;-78
2023/07/11 13:54:15;;;;;;;5.47;4.97;;;;;;;33.54;31.52;96364.09;6278298;22;20020;-78
2023/07/11 13:56:43;;;;;;;;;;;;;;;33.52;31.60;96369.06;6279687;22;20023;-78
2023/07/11 13:59:10;;;;;;;7.28;5.32;;;;;;;33.53;31.82;96362.53;6278854;22;19922;-78
2023/07/11 14:01:38;;;;;;;7.65;6.32;;;;;;;33.58;31.99;96361.50;6278236;22;20023;-77
2023/07/11 14:04:18;;;;;;;6.80;5.13;;;;;;;33.59;32.12;96361.22;6278037;22;20457;-77
2023/07/11 14:06:46;;;;;;;7.95;5.72;;;;;;;33.59;32.02;96355.03;6278445;22;20099;-77
2023/07/11 14:09:14;;;;;;;6.65;5.32;;;;;;;33.57;32.32;96357.25;6277699;22;20024;-77
2023/07/11 14:11:44;;;;;;;7.78;5.97;;;;;;;33.54;32.77;96355.97;6277921;22;20393;-77
2023/07/11 14:14:13;;;;;;;15.63;6.15;;;;;;;33.53;32.39;96367.94;6278529;22;20075;-77
2023/07/11 14:16:59;;;;;;;5.85;5.00;;;;;;;33.51;32.80;96353.16;6278174;22;20030;-78
2023/07/11 14:19:32;;;;;;;9.07;6.07;;;;;;;33.45;32.88;96356.09;6277742;22;20019;-77
2023/07/11 14:22:06;;;;;;;7.40;5.35;;;;;;;33.43;32.67;96352.13;6278346;22;20464;-78
2023/07/11 14:24:42;;;;;;;9.32;5.57;;;;;;;33.38;32.91;96350.44;6279197;22;20026;-77
2023/07/11 14:27:12;;;;;;;6.85;6.20;;;;;;;33.34;32.75;96348.75;6278202;22;20031;-77
2023/07/11 14:29:40;;;;;;;6.80;5.60;;;;;;;33.29;32.36;96346.28;6278329;22;20095;-77
2023/07/11 14:32:12;;;;;;;7.13;5.65;;;;;;;33.22;32.42;96347.59;6278235;22;20643;-77
2023/07/11 14:34:41;;;;;;;10.70;5.80;;;;;;;33.20;32.45;96333.63;6278415;22;20069;-77
2023/07/11 14:37:14;;;;;;;6.88;5.70;;;;;;;33.20;32.03;96333.63;6278245;22;20030;-77